createdAt,value
2019-05-30T00:00:55.843Z,70.48
2019-05-30T00:03:27.884Z,71.03
2019-05-30T00:06:00.528Z,71.86
2019-05-30T00:08:32.648Z,72.03
2019-05-30T00:11:04.867Z,72.93
2019-05-30T00:13:36.889Z,72.62
2019-05-30T00:16:09.461Z,73.12
2019-05-30T00:18:41.579Z,73.84
2019-05-30T00:21:13.610Z,73.66
2019-05-30T00:23:45.514Z,74.24
2019-05-30T00:26:17.535Z,73.86
2019-05-30T00:28:49.588Z,74.40
2019-05-30T00:31:21.601Z,75.13
2019-05-30T00:33:53.643Z,74.89
2019-05-30T00:36:25.986Z,75.13
2019-05-30T00:38:57.972Z,75.58
2019-05-30T00:41:29.924Z,75.78
2019-05-30T00:44:02.158Z,75.59
2019-05-30T00:46:34.360Z,76.05
2019-05-30T00:49:06.687Z,76.25
2019-05-30T00:51:38.681Z,77.12
2019-05-30T00:54:10.661Z,76.89
2019-05-30T00:56:42.457Z,76.40
2019-05-30T00:59:14.355Z,75.99
2019-05-30T01:01:46.135Z,76.15
2019-05-30T01:04:18.365Z,76.31
2019-05-30T01:06:50.154Z,76.20
2019-05-30T01:09:22.061Z,76.30
2019-05-30T01:11:54.051Z,76.42
2019-05-30T01:14:25.961Z,77.13
2019-05-30T01:16:59.047Z,76.57
2019-05-30T01:19:31.050Z,76.46
2019-05-30T01:22:05.400Z,77.42
2019-05-30T01:24:37.434Z,77.63
2019-05-30T01:27:09.370Z,77.63
2019-05-30T01:29:41.349Z,77.24
2019-05-30T01:32:29.098Z,77.29
2019-05-30T01:35:02.074Z,78.00
2019-05-30T01:37:37.296Z,77.53
2019-05-30T01:40:10.614Z,77.72
2019-05-30T01:42:42.554Z,77.90
2019-05-30T01:45:14.949Z,78.17
2019-05-30T01:47:46.730Z,77.87
2019-05-30T01:50:18.808Z,78.10
2019-05-30T01:52:50.769Z,78.72
2019-05-30T01:55:22.824Z,78.84
2019-05-30T01:57:54.834Z,79.59
2019-05-30T02:00:38.957Z,78.23
2019-05-30T02:03:11.057Z,79.16
2019-05-30T02:05:43.039Z,78.80
2019-05-30T02:08:14.980Z,78.60
2019-05-30T02:10:47.036Z,79.01
2019-05-30T02:13:19.003Z,79.68
2019-05-30T02:15:51.095Z,79.00
2019-05-30T02:18:23.065Z,79.65
2019-05-30T02:20:54.969Z,79.07
2019-05-30T02:23:27.076Z,79.50
2019-05-30T02:26:00.104Z,79.82
2019-05-30T02:28:32.251Z,79.73
2019-05-30T02:31:05.338Z,79.36
2019-05-30T02:33:37.737Z,79.86
2019-05-30T02:36:12.577Z,79.64
2019-05-30T02:38:44.874Z,80.25
2019-05-30T02:41:17.107Z,81.01
2019-05-30T02:43:49.211Z,80.99
2019-05-30T02:46:21.100Z,81.28
2019-05-30T02:48:58.992Z,81.15
2019-05-30T02:51:26.578Z,81.75
2019-05-30T02:53:58.530Z,81.05
2019-05-30T02:56:30.769Z,80.58
2019-05-30T02:59:03.870Z,80.17
2019-05-30T03:01:36.470Z,80.34
2019-05-30T03:04:10.237Z,79.83
2019-05-30T03:06:42.428Z,79.57
2019-05-30T03:09:14.410Z,81.08
2019-05-30T03:11:46.890Z,80.39
2019-05-30T03:14:19.949Z,79.71
2019-05-30T03:16:52.268Z,80.21
2019-05-30T03:19:24.231Z,80.78
2019-05-30T03:21:56.270Z,80.36
2019-05-30T03:24:28.195Z,80.83
2019-05-30T03:27:00.226Z,80.69
2019-05-30T03:29:32.213Z,81.14
2019-05-30T03:32:38.987Z,81.33
2019-05-30T03:34:37.848Z,80.77
2019-05-30T03:37:21.456Z,80.60
2019-05-30T03:39:43.483Z,80.56
2019-05-30T03:42:16.107Z,80.26
2019-05-30T03:44:48.216Z,80.15
2019-05-30T03:47:22.086Z,80.23
2019-05-30T03:49:56.232Z,80.04
2019-05-30T03:52:29.076Z,79.92
2019-05-30T03:55:01.282Z,80.26
2019-05-30T03:57:43.164Z,79.74
2019-05-30T04:00:37.367Z,79.41
2019-05-30T04:03:31.858Z,77.92
2019-05-30T04:06:10.143Z,77.70
2019-05-30T04:08:43.849Z,78.49
2019-05-30T04:11:29.633Z,78.44
2019-05-30T04:14:06.805Z,78.20
2019-05-30T04:16:38.596Z,78.49
2019-05-30T04:19:12.356Z,78.62
2019-05-30T04:21:43.996Z,78.48
2019-05-30T04:24:16.498Z,78.90
2019-05-30T04:26:48.507Z,78.17
2019-05-30T04:29:20.556Z,78.05
2019-05-30T04:31:52.426Z,77.82
2019-05-30T04:34:24.258Z,78.24
2019-05-30T04:36:56.132Z,77.22
2019-05-30T04:39:28.692Z,75.68
2019-05-30T04:42:00.576Z,75.94
2019-05-30T04:44:32.494Z,75.32
2019-05-30T04:47:23.024Z,74.38
2019-05-30T04:49:56.012Z,74.37
2019-05-30T04:52:27.978Z,72.51
2019-05-30T04:54:59.891Z,72.23
2019-05-30T04:57:31.865Z,72.01
2019-05-30T05:00:05.504Z,71.59
2019-05-30T05:02:37.872Z,71.04
2019-05-30T05:05:11.360Z,70.67
2019-05-30T05:07:43.390Z,69.64
2019-05-30T05:10:20.425Z,69.47
2019-05-30T05:12:52.845Z,68.48
2019-05-30T05:15:24.855Z,68.39
2019-05-30T05:17:56.789Z,68.46
2019-05-30T05:20:28.841Z,68.86
2019-05-30T05:23:01.048Z,67.34
2019-05-30T05:25:33.086Z,67.64
2019-05-30T05:28:05.071Z,67.22
2019-05-30T05:30:37.124Z,67.56
2019-05-30T05:33:09.006Z,66.87
2019-05-30T05:35:40.963Z,66.89
2019-05-30T05:38:12.949Z,67.33
2019-05-30T05:40:45.082Z,66.60
2019-05-30T05:43:18.593Z,65.91
2019-05-30T05:45:51.777Z,66.12
2019-05-30T05:48:24.724Z,66.02
2019-05-30T05:50:56.861Z,66.21
2019-05-30T05:53:29.087Z,65.47
2019-05-30T05:56:01.340Z,65.79
2019-05-30T05:58:33.396Z,65.37
2019-05-30T06:01:07.515Z,65.67
2019-05-30T06:03:39.955Z,65.29
2019-05-30T06:06:11.940Z,65.57
2019-05-30T06:08:44.791Z,63.90
2019-05-30T06:11:16.735Z,63.77
2019-05-30T06:13:48.976Z,63.64
2019-05-30T06:16:21.998Z,62.75
2019-05-30T06:18:54.011Z,63.72
2019-05-30T06:21:27.483Z,62.93
2019-05-30T06:23:59.462Z,63.22
2019-05-30T06:26:31.515Z,60.86
2019-05-30T06:29:03.761Z,61.09
2019-05-30T06:31:35.904Z,58.46
2019-05-30T06:34:07.907Z,57.69
2019-05-30T06:36:41.185Z,59.23
2019-05-30T06:39:13.133Z,56.03
2019-05-30T06:41:45.103Z,56.18
2019-05-30T06:44:16.882Z,55.89
2019-05-30T06:46:48.650Z,51.06
2019-05-30T06:49:20.678Z,51.69
2019-05-30T06:51:52.731Z,51.39
2019-05-30T06:54:25.906Z,54.68
2019-05-30T06:56:58.718Z,53.17
2019-05-30T06:59:31.727Z,52.28
2019-05-30T07:02:03.884Z,51.10
2019-05-30T07:04:50.870Z,50.79
2019-05-30T07:07:09.547Z,53.35
2019-05-30T07:09:41.576Z,54.67
2019-05-30T07:12:13.496Z,54.68
2019-05-30T07:14:45.497Z,52.38
2019-05-30T07:17:17.711Z,50.36
2019-05-30T07:19:49.721Z,49.17
2019-05-30T07:22:21.710Z,49.36
2019-05-30T07:24:53.599Z,49.17
2019-05-30T07:27:26.096Z,47.34
2019-05-30T07:29:58.175Z,48.32
2019-05-30T07:32:32.160Z,44.27
2019-05-30T07:35:07.688Z,42.79
2019-05-30T07:37:39.905Z,44.52
2019-05-30T07:40:12.603Z,42.60
2019-05-30T07:42:44.581Z,45.29
2019-05-30T07:45:17.505Z,42.83
2019-05-30T07:47:49.577Z,41.97
2019-05-30T07:50:21.951Z,40.81
2019-05-30T07:52:53.850Z,40.55
2019-05-30T07:55:26.850Z,38.98
2019-05-30T07:57:59.038Z,40.28
2019-05-30T08:00:33.486Z,37.97
2019-05-30T08:03:04.757Z,38.73
2019-05-30T08:05:36.717Z,38.12
2019-05-30T08:08:08.699Z,40.36
2019-05-30T08:10:40.594Z,37.63
2019-05-30T08:13:12.578Z,37.28
2019-05-30T08:15:44.467Z,38.27
2019-05-30T08:18:16.307Z,38.91
2019-05-30T08:20:48.239Z,40.17
2019-05-30T08:23:20.171Z,39.18
2019-05-30T08:25:52.185Z,37.47
2019-05-30T08:28:24.082Z,39.43
2019-05-30T08:30:56.972Z,39.64
2019-05-30T08:33:29.548Z,38.96
2019-05-30T08:36:05.481Z,39.63
2019-05-30T08:38:37.340Z,38.68
2019-05-30T08:41:09.497Z,38.11
2019-05-30T08:43:41.478Z,38.28
2019-05-30T08:46:15.808Z,38.18
2019-05-30T08:48:48.148Z,38.94
2019-05-30T08:51:20.024Z,37.84
2019-05-30T08:53:51.935Z,40.73
2019-05-30T08:56:23.737Z,38.42
2019-05-30T08:58:55.651Z,37.06
2019-05-30T09:01:27.632Z,39.81
2019-05-30T09:03:59.544Z,39.79
2019-05-30T09:06:32.503Z,39.12
2019-05-30T09:09:06.377Z,38.32
2019-05-30T09:11:39.290Z,38.77
2019-05-30T09:14:13.102Z,38.34
2019-05-30T09:16:46.499Z,40.54
2019-05-30T09:19:18.847Z,39.28
2019-05-30T09:21:51.985Z,38.09
2019-05-30T09:24:23.982Z,37.59
2019-05-30T09:26:57.084Z,37.79
2019-05-30T09:29:29.080Z,39.13
2019-05-30T09:32:01.014Z,39.58
2019-05-30T09:34:33.067Z,39.25
2019-05-30T09:37:04.998Z,40.41
2019-05-30T09:39:36.917Z,41.55
2019-05-30T09:42:08.845Z,37.44
2019-05-30T09:44:42.189Z,40.58
2019-05-30T09:47:14.219Z,39.57
2019-05-30T09:49:46.569Z,41.80
2019-05-30T09:52:18.595Z,38.59
2019-05-30T09:54:50.587Z,39.41
2019-05-30T09:57:22.451Z,38.60
2019-05-30T09:59:54.364Z,38.00
2019-05-30T10:02:26.539Z,39.16
2019-05-30T10:04:58.504Z,37.03
2019-05-30T10:07:30.552Z,37.10
2019-05-30T10:10:03.975Z,38.61
2019-05-30T10:12:35.983Z,36.80
2019-05-30T10:15:12.026Z,39.03
2019-05-30T10:17:44.669Z,36.82
2019-05-30T10:20:18.794Z,36.98
2019-05-30T10:22:52.432Z,39.99
2019-05-30T10:25:24.855Z,38.50
2019-05-30T10:27:57.787Z,36.12
2019-05-30T10:30:30.553Z,36.37
2019-05-30T10:33:02.378Z,38.12
2019-05-30T10:35:34.420Z,36.76
2019-05-30T10:38:06.708Z,34.83
2019-05-30T10:40:38.658Z,36.21
2019-05-30T10:43:18.908Z,38.43
2019-05-30T10:45:57.529Z,38.38
2019-05-30T10:48:30.357Z,35.62
2019-05-30T10:51:02.744Z,37.89
2019-05-30T10:53:37.402Z,37.32
2019-05-30T10:56:08.538Z,37.21
2019-05-30T10:58:40.612Z,35.72
2019-05-30T11:01:12.581Z,38.74
2019-05-30T11:03:44.592Z,36.28
2019-05-30T11:06:21.118Z,38.89
2019-05-30T11:08:54.879Z,35.30
2019-05-30T11:11:26.835Z,34.59
2019-05-30T11:13:58.785Z,36.01
2019-05-30T11:16:30.790Z,35.86
2019-05-30T11:19:07.309Z,36.79
2019-05-30T11:21:36.370Z,36.00
2019-05-30T11:24:08.412Z,36.97
2019-05-30T11:26:40.393Z,37.04
2019-05-30T11:29:12.360Z,35.65
2019-05-30T11:31:44.350Z,36.86
2019-05-30T11:34:16.283Z,35.99
2019-05-30T11:36:48.970Z,33.57
2019-05-30T11:39:21.025Z,37.61
2019-05-30T11:41:53.283Z,37.25
2019-05-30T11:44:25.316Z,36.16
2019-05-30T11:46:57.768Z,37.29
2019-05-30T11:49:29.769Z,35.05
2019-05-30T11:52:01.610Z,38.03
2019-05-30T11:54:34.346Z,37.61
2019-05-30T11:57:07.385Z,36.47
2019-05-30T11:59:39.268Z,37.94
2019-05-30T12:02:11.284Z,35.73
2019-05-30T12:04:43.407Z,36.06
2019-05-30T12:07:15.501Z,37.16
2019-05-30T12:09:48.470Z,35.58
2019-05-30T12:12:20.640Z,36.61
2019-05-30T12:14:53.314Z,35.40
2019-05-30T12:17:25.453Z,35.55
2019-05-30T12:19:59.594Z,34.83
2019-05-30T12:22:31.584Z,35.82
2019-05-30T12:25:07.330Z,37.05
2019-05-30T12:27:39.685Z,35.79
2019-05-30T12:30:12.219Z,34.98
2019-05-30T12:32:45.330Z,33.43
2019-05-30T12:35:21.307Z,33.69
2019-05-30T12:37:58.500Z,34.49
2019-05-30T12:40:27.535Z,33.63
2019-05-30T12:43:01.040Z,36.30
2019-05-30T12:45:33.264Z,32.64
2019-05-30T12:48:05.242Z,34.35
2019-05-30T12:50:37.115Z,34.80
2019-05-30T12:53:09.171Z,34.16
2019-05-30T12:55:41.061Z,34.62
2019-05-30T12:58:13.178Z,33.31
2019-05-30T13:00:45.504Z,35.51
2019-05-30T13:03:17.489Z,31.45
2019-05-30T13:05:49.431Z,32.14
2019-05-30T13:08:22.203Z,32.38
2019-05-30T13:10:55.523Z,32.91
2019-05-30T13:13:27.682Z,34.91
2019-05-30T13:16:01.064Z,32.90
2019-05-30T13:18:33.425Z,34.28
2019-05-30T13:21:06.328Z,33.34
2019-05-30T13:23:38.924Z,31.62
2019-05-30T13:26:10.850Z,32.44
2019-05-30T13:28:42.979Z,30.50
2019-05-30T13:31:15.869Z,31.91
2019-05-30T13:33:47.852Z,32.44
2019-05-30T13:36:19.661Z,31.51
2019-05-30T13:38:51.504Z,29.95
2019-05-30T13:41:23.531Z,32.17
2019-05-30T13:43:55.434Z,31.22
2019-05-30T13:46:27.340Z,31.42
2019-05-30T13:49:00.795Z,31.32
2019-05-30T13:51:32.855Z,32.82
2019-05-30T13:54:05.282Z,32.03
2019-05-30T13:56:37.273Z,30.34
2019-05-30T13:59:10.111Z,30.68
2019-05-30T14:01:42.197Z,32.47
2019-05-30T14:04:14.278Z,28.91
2019-05-30T14:06:46.226Z,30.01
2019-05-30T14:09:19.047Z,30.17
2019-05-30T14:11:50.982Z,30.45
2019-05-30T14:14:24.087Z,27.42
2019-05-30T14:16:56.222Z,28.50
2019-05-30T14:19:28.068Z,29.78
2019-05-30T14:22:01.057Z,29.39
2019-05-30T14:24:35.555Z,27.52
2019-05-30T14:27:07.650Z,31.85
2019-05-30T14:29:40.609Z,28.19
2019-05-30T14:32:12.632Z,27.72
2019-05-30T14:34:44.546Z,27.39
2019-05-30T14:37:16.333Z,29.05
2019-05-30T14:39:48.584Z,29.86
2019-05-30T14:42:20.537Z,28.34
2019-05-30T14:44:52.514Z,28.08
2019-05-30T14:47:24.691Z,28.97
2019-05-30T14:49:56.686Z,29.13
2019-05-30T14:52:28.949Z,30.62
2019-05-30T14:55:02.026Z,30.55
2019-05-30T14:57:34.128Z,28.58
2019-05-30T15:00:13.596Z,27.90
2019-05-30T15:02:46.153Z,28.19
2019-05-30T15:05:18.554Z,27.74
2019-05-30T15:07:50.589Z,29.42
2019-05-30T15:10:22.513Z,29.67
2019-05-30T15:12:55.371Z,29.98
2019-05-30T15:15:27.346Z,28.41
2019-05-30T15:17:59.169Z,29.17
2019-05-30T15:20:31.215Z,27.85
2019-05-30T15:23:03.165Z,30.87
2019-05-30T15:25:35.091Z,26.92
2019-05-30T15:28:07.967Z,29.12
2019-05-30T15:30:40.024Z,25.90
2019-05-30T15:33:12.658Z,26.44
2019-05-30T15:35:45.684Z,24.88
2019-05-30T15:38:17.578Z,27.93
2019-05-30T15:40:49.499Z,27.15
2019-05-30T15:43:21.455Z,28.52
2019-05-30T15:45:53.436Z,25.50
2019-05-30T15:48:25.312Z,24.70
2019-05-30T15:50:57.301Z,26.61
2019-05-30T15:53:29.406Z,25.54
2019-05-30T15:56:01.729Z,26.89
2019-05-30T15:58:33.761Z,27.43
2019-05-30T16:01:09.810Z,25.31
2019-05-30T16:03:43.689Z,26.59
2019-05-30T16:06:16.549Z,26.81
2019-05-30T16:08:48.518Z,26.18
2019-05-30T16:11:21.261Z,24.29
2019-05-30T16:13:53.304Z,17.59
2019-05-30T16:16:38.914Z,14.74
2019-05-30T16:19:14.789Z,12.18
2019-05-30T16:21:33.615Z,12.52
2019-05-30T16:24:07.050Z,14.62
2019-05-30T16:26:39.373Z,17.66
2019-05-30T16:29:11.342Z,21.86
2019-05-30T16:31:43.185Z,20.97
2019-05-30T16:34:16.104Z,19.19
2019-05-30T16:36:48.773Z,21.45
2019-05-30T16:39:20.647Z,21.12
2019-05-30T16:41:52.801Z,22.84
2019-05-30T16:44:24.767Z,22.07
2019-05-30T16:46:56.752Z,19.70
2019-05-30T16:49:29.051Z,19.98
2019-05-30T16:52:00.978Z,24.43
2019-05-30T16:54:33.021Z,19.46
2019-05-30T16:57:05.025Z,16.04
2019-05-30T16:59:36.917Z,12.57
2019-05-30T17:02:09.389Z,11.52
2019-05-30T17:04:41.365Z,11.27
2019-05-30T17:07:13.452Z,12.20
2019-05-30T17:09:45.403Z,14.64
2019-05-30T17:12:17.504Z,17.74
2019-05-30T17:14:49.564Z,20.49
2019-05-30T17:17:24.195Z,21.26
2019-05-30T17:19:56.817Z,23.40
2019-05-30T17:22:30.930Z,24.20
2019-05-30T17:25:03.831Z,25.02
2019-05-30T17:27:46.710Z,26.32
2019-05-30T17:30:21.616Z,24.24
2019-05-30T17:32:55.143Z,23.64
2019-05-30T17:35:46.281Z,20.81
2019-05-30T17:38:26.533Z,18.05
2019-05-30T17:40:58.535Z,16.72
2019-05-30T17:43:30.455Z,16.31
2019-05-30T17:46:02.439Z,18.70
2019-05-30T17:48:34.573Z,19.12
2019-05-30T17:51:06.610Z,20.60
2019-05-30T17:53:38.738Z,25.09
2019-05-30T17:56:10.796Z,27.18
2019-05-30T17:58:42.992Z,27.03
2019-05-30T18:01:14.736Z,26.65
2019-05-30T18:03:46.717Z,26.29
2019-05-30T18:06:20.377Z,25.36
2019-05-30T18:08:52.466Z,28.16
2019-05-30T18:11:24.947Z,29.20
2019-05-30T18:13:57.052Z,32.04
2019-05-30T18:16:29.290Z,33.35
2019-05-30T18:19:01.296Z,34.57
2019-05-30T18:21:33.251Z,35.77
2019-05-30T18:24:05.370Z,37.35
2019-05-30T18:26:37.317Z,37.76
2019-05-30T18:29:09.381Z,38.83
2019-05-30T18:31:41.271Z,39.09
2019-05-30T18:34:13.049Z,39.66
2019-05-30T18:36:46.325Z,40.51
2019-05-30T18:39:18.687Z,40.39
2019-05-30T18:41:50.654Z,41.98
2019-05-30T18:44:22.803Z,43.60
2019-05-30T18:46:54.673Z,47.10
2019-05-30T18:49:27.140Z,47.65
2019-05-30T18:51:59.234Z,48.30
2019-05-30T18:54:31.737Z,49.55
2019-05-30T18:57:04.913Z,50.04
2019-05-30T18:59:37.394Z,51.10
2019-05-30T19:02:10.555Z,51.27
2019-05-30T19:04:42.539Z,52.35
2019-05-30T19:07:14.505Z,52.89
2019-05-30T19:09:46.479Z,53.51
2019-05-30T19:12:19.436Z,53.58
2019-05-30T19:14:51.344Z,55.04
2019-05-30T19:17:23.239Z,55.02
2019-05-30T19:19:55.240Z,55.29
2019-05-30T19:22:28.365Z,55.30
2019-05-30T19:25:00.683Z,56.22
2019-05-30T19:27:36.401Z,57.44
2019-05-30T19:30:11.151Z,57.71
2019-05-30T19:32:42.962Z,57.46
2019-05-30T19:35:15.926Z,58.70
2019-05-30T19:38:05.044Z,58.84
2019-05-30T19:40:39.427Z,58.66
2019-05-30T19:43:12.874Z,58.77
2019-05-30T19:45:45.301Z,59.39
2019-05-30T19:48:17.302Z,59.25
2019-05-30T19:50:49.220Z,59.07
2019-05-30T19:53:21.106Z,59.87
2019-05-30T19:55:53.068Z,60.36
2019-05-30T19:58:24.966Z,60.88
2019-05-30T20:00:58.766Z,61.12
2019-05-30T20:03:38.519Z,61.57
2019-05-30T20:06:04.257Z,61.46
2019-05-30T20:08:51.356Z,61.99
2019-05-30T20:11:09.893Z,62.16
2019-05-30T20:13:41.946Z,62.47
2019-05-30T20:16:13.986Z,62.69
2019-05-30T20:18:45.892Z,63.16
2019-05-30T20:21:18.588Z,62.85
2019-05-30T20:23:56.622Z,63.66
2019-05-30T20:26:24.167Z,63.23
2019-05-30T20:28:56.051Z,64.15
2019-05-30T20:31:28.149Z,64.35
2019-05-30T20:34:00.190Z,64.65
2019-05-30T20:36:32.177Z,64.74
2019-05-30T20:39:04.887Z,65.69
2019-05-30T20:41:36.962Z,66.29
2019-05-30T20:44:08.856Z,67.02
2019-05-30T20:46:41.172Z,67.74
2019-05-30T20:49:13.149Z,67.96
2019-05-30T20:51:45.118Z,68.80
2019-05-30T20:54:17.015Z,70.42
2019-05-30T20:56:51.062Z,70.67
2019-05-30T20:59:22.597Z,70.68
2019-05-30T21:01:54.662Z,70.86
2019-05-30T21:04:26.814Z,70.87
2019-05-30T21:06:59.313Z,71.67
2019-05-30T21:09:31.885Z,71.99
2019-05-30T21:12:05.347Z,71.58
2019-05-30T21:14:37.421Z,72.72
2019-05-30T21:17:10.220Z,73.11
2019-05-30T21:19:42.174Z,73.63
2019-05-30T21:22:14.168Z,74.01
2019-05-30T21:24:46.944Z,73.77
2019-05-30T21:27:19.021Z,73.79
2019-05-30T21:29:51.049Z,73.18
2019-05-30T21:32:23.023Z,73.45
2019-05-30T21:34:54.978Z,74.08
2019-05-30T21:37:26.952Z,74.17
2019-05-30T21:39:58.981Z,73.94
2019-05-30T21:42:31.055Z,74.92
2019-05-30T21:45:02.866Z,74.58
2019-05-30T21:47:34.833Z,73.88
2019-05-30T21:50:07.903Z,74.12
2019-05-30T21:52:41.326Z,74.18
2019-05-30T21:55:13.698Z,74.95
2019-05-30T21:57:46.025Z,75.20
2019-05-30T22:01:05.805Z,74.90
2019-05-30T22:03:37.794Z,74.97
2019-05-30T22:06:09.591Z,74.90
2019-05-30T22:08:43.003Z,75.54
2019-05-30T22:11:15.143Z,75.99
2019-05-30T22:13:47.690Z,74.73
2019-05-30T22:16:19.622Z,76.47
2019-05-30T22:18:52.206Z,75.27
2019-05-30T22:21:24.405Z,76.63
2019-05-30T22:23:56.396Z,76.54
2019-05-30T22:26:28.495Z,76.67
2019-05-30T22:29:00.472Z,77.30
2019-05-30T22:31:32.490Z,77.62
2019-05-30T22:34:04.455Z,77.16
2019-05-30T22:36:36.335Z,76.73
2019-05-30T22:39:09.031Z,76.96
2019-05-30T22:41:41.042Z,78.33
2019-05-30T22:44:13.010Z,78.34
2019-05-30T22:46:46.115Z,76.09
2019-05-30T22:49:18.103Z,76.72
2019-05-30T22:51:51.109Z,77.26
2019-05-30T22:54:23.149Z,77.33
2019-05-30T22:56:55.755Z,77.77
2019-05-30T22:59:27.775Z,77.05
2019-05-30T23:01:59.735Z,77.00
2019-05-30T23:04:31.837Z,77.15
2019-05-30T23:07:04.035Z,78.08
2019-05-30T23:09:36.142Z,77.62
2019-05-30T23:12:08.047Z,76.87
2019-05-30T23:14:40.083Z,77.44
2019-05-30T23:17:11.978Z,77.28
2019-05-30T23:19:44.048Z,77.74
2019-05-30T23:22:16.042Z,77.57
2019-05-30T23:24:49.209Z,77.42
2019-05-30T23:27:21.106Z,78.04
2019-05-30T23:29:53.921Z,77.54
2019-05-30T23:32:25.764Z,78.12
2019-05-30T23:34:58.666Z,80.10
2019-05-30T23:37:30.522Z,78.51
2019-05-30T23:40:02.420Z,77.41
2019-05-30T23:42:34.364Z,78.33
2019-05-30T23:45:10.227Z,78.48
2019-05-30T23:47:42.039Z,79.08
2019-05-30T23:50:13.937Z,79.02
2019-05-30T23:52:45.821Z,78.25
2019-05-30T23:55:17.719Z,78.60
2019-05-30T23:57:50.357Z,78.01
